Time;durP1;ratioP1;P1;durP2;ratioP2;P2;SDS_P1;SDS_P2;PMS_P1;PMS_P2;Temp;Humidity;BMP_temperature;BMP_pressure;BME280_temperature;BME280_humidity;BME280_pressure;Samples;Min_cycle;Max_cycle;Signal;HPM_P1;HPM_P2
2022/04/07 00:00:14;;;;;;;1.63;0.60;;;;;;;;;;5095460;28;20042;-79
2022/04/07 00:03:01;;;;;;;2.40;0.73;;;;;;;;;;5081374;28;20035;-79
2022/04/07 00:05:47;;;;;;;2.17;0.40;;;;;;;;;;5083066;28;20035;-79
2022/04/07 00:08:33;;;;;;;1.42;0.50;;;;;;;;;;5095024;28;20051;-79
2022/04/07 00:11:18;;;;;;;1.10;0.60;;;;;;;;;;5080924;28;20093;-79
2022/04/07 00:14:04;;;;;;;1.20;0.40;;;;;;;;;;5079312;28;20048;-79
2022/04/07 00:16:50;;;;;;;1.00;0.70;;;;;;;;;;5060775;28;20097;-79
2022/04/07 00:19:37;;;;;;;1.38;0.63;;;;;;;;;;5075579;28;20437;-79
2022/04/07 00:22:23;;;;;;;2.17;0.80;;;;;;;;;;5061019;28;20390;-79
2022/04/07 00:25:10;;;;;;;1.50;0.57;;;;;;;;;;5074074;28;20036;-80
2022/04/07 00:27:55;;;;;;;1.65;0.40;;;;;;;;;;5064210;28;20028;-79
2022/04/07 00:30:43;;;;;;;1.10;0.32;;;;;;;;;;5079372;28;20058;-79
2022/04/07 00:33:28;;;;;;;1.05;0.50;;;;;;;;;;5064689;28;20035;-79
2022/04/07 00:36:14;;;;;;;1.33;0.40;;;;;;;;;;5078279;28;20051;-79
2022/04/07 00:39:00;;;;;;;1.42;0.60;;;;;;;;;;5079473;28;20040;-79
2022/04/07 00:41:46;;;;;;;1.35;0.40;;;;;;;;;;5065426;28;20105;-79
2022/04/07 00:44:32;;;;;;;1.73;0.47;;;;;;;;;;5079360;28;20028;-79
2022/04/07 00:47:18;;;;;;;1.10;0.57;;;;;;;;;;5065374;28;20048;-78
2022/04/07 00:50:04;;;;;;;2.00;0.40;;;;;;;;;;5064155;28;20040;-79
2022/04/07 00:52:51;;;;;;;1.20;0.55;;;;;;;;;;5064956;28;20083;-79
2022/04/07 00:55:37;;;;;;;0.80;0.30;;;;;;;;;;5064205;28;20036;-79
2022/04/07 00:58:23;;;;;;;2.55;0.77;;;;;;;;;;5063771;28;20044;-79
2022/04/07 01:01:09;;;;;;;0.95;0.60;;;;;;;;;;5077974;28;20040;-79
2022/04/07 01:03:55;;;;;;;1.70;0.45;;;;;;;;;;5064445;28;20059;-79
2022/04/07 01:06:47;;;;;;;1.02;0.30;;;;;;;;;;5081310;28;20036;-79
2022/04/07 01:09:33;;;;;;;1.00;0.32;;;;;;;;;;5086023;28;20047;-79
2022/04/07 01:12:19;;;;;;;0.95;0.40;;;;;;;;;;5085536;28;20096;-79
2022/04/07 01:15:06;;;;;;;1.35;0.52;;;;;;;;;;5085825;28;20039;-79
2022/04/07 01:17:52;;;;;;;1.17;0.88;;;;;;;;;;5085064;28;20051;-79
2022/04/07 01:20:38;;;;;;;1.30;0.32;;;;;;;;;;5097708;28;20031;-79
2022/04/07 01:23:24;;;;;;;0.80;0.40;;;;;;;;;;5098126;28;20486;-78
2022/04/07 01:26:10;;;;;;;0.55;0.22;;;;;;;;;;5098636;28;20076;-79
2022/04/07 01:28:55;;;;;;;0.93;0.40;;;;;;;;;;5085284;28;20040;-79
2022/04/07 01:31:41;;;;;;;1.95;0.30;;;;;;;;;;5084059;28;20040;-79
2022/04/07 01:34:27;;;;;;;1.20;0.38;;;;;;;;;;5098224;28;20577;-79
2022/04/07 01:37:13;;;;;;;1.05;0.30;;;;;;;;;;5098371;28;20039;-78
2022/04/07 01:39:59;;;;;;;0.90;0.32;;;;;;;;;;5082418;28;20071;-79
2022/04/07 01:42:45;;;;;;;0.88;0.30;;;;;;;;;;5084741;28;20031;-79
2022/04/07 01:45:33;;;;;;;1.30;0.45;;;;;;;;;;5098303;28;20043;-79
2022/04/07 01:48:18;;;;;;;0.90;0.20;;;;;;;;;;5085666;28;20039;-79
2022/04/07 01:51:04;;;;;;;1.25;0.25;;;;;;;;;;5098307;28;20497;-79
2022/04/07 01:53:50;;;;;;;0.65;0.20;;;;;;;;;;5083568;28;20093;-79
2022/04/07 01:56:36;;;;;;;0.98;0.28;;;;;;;;;;5097657;28;20469;-79
2022/04/07 01:59:22;;;;;;;1.45;0.73;;;;;;;;;;5083151;28;20038;-79
2022/04/07 02:02:08;;;;;;;0.85;0.20;;;;;;;;;;5076573;28;20040;-79
2022/04/07 02:05:08;;;;;;;0.95;0.40;;;;;;;;;;5064103;28;20043;-79
2022/04/07 02:07:54;;;;;;;1.27;0.40;;;;;;;;;;5078303;28;20490;-78
2022/04/07 02:10:39;;;;;;;0.60;0.20;;;;;;;;;;5063980;28;20044;-79
2022/04/07 02:13:25;;;;;;;0.82;0.50;;;;;;;;;;5092053;28;20044;-79
2022/04/07 02:16:11;;;;;;;0.30;0.20;;;;;;;;;;5063803;28;20044;-79
2022/04/07 02:18:57;;;;;;;1.63;0.20;;;;;;;;;;5077222;28;20119;-79
2022/04/07 02:21:45;;;;;;;0.70;0.20;;;;;;;;;;5063781;28;20036;-79
2022/04/07 02:24:31;;;;;;;1.42;0.20;;;;;;;;;;5076861;28;20036;-79
2022/04/07 02:27:16;;;;;;;0.70;0.25;;;;;;;;;;5062632;28;20448;-79
2022/04/07 02:30:04;;;;;;;0.90;0.30;;;;;;;;;;5063260;28;20115;-79
2022/04/07 02:32:50;;;;;;;0.90;0.20;;;;;;;;;;5077381;28;20059;-79
2022/04/07 02:35:36;;;;;;;0.45;0.10;;;;;;;;;;5063171;28;20660;-78
2022/04/07 02:38:21;;;;;;;0.82;0.40;;;;;;;;;;5075597;28;20044;-79
2022/04/07 02:41:07;;;;;;;0.93;0.32;;;;;;;;;;5076329;28;20044;-79
2022/04/07 02:43:55;;;;;;;0.55;0.30;;;;;;;;;;5063209;28;20036;-78
2022/04/07 02:46:41;;;;;;;0.65;0.20;;;;;;;;;;5063613;28;20995;-78
2022/04/07 02:49:26;;;;;;;0.85;0.20;;;;;;;;;;5077087;28;20036;-79
2022/04/07 02:52:12;;;;;;;1.35;0.40;;;;;;;;;;5063195;28;20257;-79
2022/04/07 02:54:58;;;;;;;0.40;0.20;;;;;;;;;;5078637;28;20573;-79
2022/04/07 02:57:44;;;;;;;0.95;0.25;;;;;;;;;;5095863;28;20520;-79
2022/04/07 03:00:30;;;;;;;0.63;0.35;;;;;;;;;;5096948;28;20027;-79
2022/04/07 03:03:16;;;;;;;1.60;0.40;;;;;;;;;;5096077;28;20035;-79
2022/04/07 03:06:02;;;;;;;1.70;0.30;;;;;;;;;;5082155;28;20057;-79
2022/04/07 03:08:47;;;;;;;1.02;0.30;;;;;;;;;;5083167;28;20048;-79
2022/04/07 03:11:33;;;;;;;0.70;0.30;;;;;;;;;;5081954;28;20051;-79
2022/04/07 03:14:19;;;;;;;2.60;0.40;;;;;;;;;;5082067;28;20043;-79
2022/04/07 03:17:05;;;;;;;1.67;0.30;;;;;;;;;;5081822;28;20043;-79
2022/04/07 03:19:51;;;;;;;0.80;0.20;;;;;;;;;;5082238;28;20040;-79
2022/04/07 03:22:37;;;;;;;1.77;0.20;;;;;;;;;;5096667;28;20071;-79
2022/04/07 03:25:23;;;;;;;0.55;0.10;;;;;;;;;;5081426;28;20040;-79
2022/04/07 03:28:09;;;;;;;0.90;0.20;;;;;;;;;;5081319;28;20118;-79
2022/04/07 03:30:55;;;;;;;0.75;0.20;;;;;;;;;;5095558;28;20042;-79
2022/04/07 03:33:40;;;;;;;0.75;0.20;;;;;;;;;;5095262;28;20035;-80
2022/04/07 03:36:26;;;;;;;1.20;0.20;;;;;;;;;;5080610;28;20044;-79
2022/04/07 03:39:13;;;;;;;0.75;0.10;;;;;;;;;;5093062;28;20043;-79
2022/04/07 03:41:59;;;;;;;1.08;0.20;;;;;;;;;;5081579;28;20039;-79
2022/04/07 03:44:45;;;;;;;0.50;0.10;;;;;;;;;;5094694;28;20028;-78
2022/04/07 03:47:31;;;;;;;0.55;0.20;;;;;;;;;;5080381;28;20035;-79
2022/04/07 03:50:16;;;;;;;2.30;0.73;;;;;;;;;;5073900;28;20058;-79
2022/04/07 03:53:02;;;;;;;2.50;0.40;;;;;;;;;;5073913;28;20402;-79
2022/04/07 03:55:48;;;;;;;0.93;0.15;;;;;;;;;;5073002;28;20059;-79
2022/04/07 03:58:34;;;;;;;0.55;0.20;;;;;;;;;;5074517;28;20036;-79
2022/04/07 04:01:21;;;;;;;0.68;0.28;;;;;;;;;;5063040;28;20064;-80
2022/04/07 04:04:06;;;;;;;0.82;0.30;;;;;;;;;;5074955;28;20043;-79
2022/04/07 04:06:52;;;;;;;2.53;0.20;;;;;;;;;;5061372;28;20505;-79
2022/04/07 04:09:38;;;;;;;5.05;0.75;;;;;;;;;;5062229;28;20047;-79
2022/04/07 04:12:23;;;;;;;4.50;1.48;;;;;;;;;;5074317;28;20089;-80
2022/04/07 04:15:09;;;;;;;6.80;0.70;;;;;;;;;;5061588;28;20047;-81
2022/04/07 04:17:55;;;;;;;4.55;1.00;;;;;;;;;;5061647;28;20092;-80
2022/04/07 04:20:41;;;;;;;2.65;0.68;;;;;;;;;;5061711;28;20039;-80
2022/04/07 04:23:27;;;;;;;4.63;0.80;;;;;;;;;;5061058;28;20043;-81
2022/04/07 04:26:12;;;;;;;3.83;0.70;;;;;;;;;;5075563;28;20464;-80
2022/04/07 04:28:58;;;;;;;5.78;1.90;;;;;;;;;;5061561;28;20037;-80
2022/04/07 04:31:44;;;;;;;1.90;0.77;;;;;;;;;;5061507;28;20149;-81
2022/04/07 04:34:30;;;;;;;3.03;0.93;;;;;;;;;;5074229;28;20094;-80
2022/04/07 04:37:16;;;;;;;2.83;0.85;;;;;;;;;;5060943;28;20032;-80
2022/04/07 04:40:02;;;;;;;1.98;0.65;;;;;;;;;;5061202;28;20052;-81
2022/04/07 04:42:47;;;;;;;3.63;1.30;;;;;;;;;;5060807;28;20044;-81
2022/04/07 04:45:34;;;;;;;4.78;0.60;;;;;;;;;;5061624;28;20058;-81
2022/04/07 04:48:20;;;;;;;6.90;1.20;;;;;;;;;;5074887;28;20025;-80
2022/04/07 04:51:05;;;;;;;2.15;0.70;;;;;;;;;;5074968;28;20125;-80
2022/04/07 04:53:53;;;;;;;3.00;0.68;;;;;;;;;;5061550;28;20410;-81
2022/04/07 04:56:40;;;;;;;4.40;0.90;;;;;;;;;;5074262;28;20494;-80
2022/04/07 04:59:25;;;;;;;2.15;0.50;;;;;;;;;;5074542;28;20449;-80
2022/04/07 05:02:12;;;;;;;2.75;0.60;;;;;;;;;;5061613;28;20047;-80
2022/04/07 05:04:58;;;;;;;1.83;0.70;;;;;;;;;;5074271;28;20039;-80
2022/04/07 05:07:43;;;;;;;2.58;0.68;;;;;;;;;;5059703;28;20054;-80
2022/04/07 05:10:29;;;;;;;2.28;0.65;;;;;;;;;;5061032;28;20052;-79
2022/04/07 05:13:15;;;;;;;2.72;0.70;;;;;;;;;;5076469;28;20043;-79
2022/04/07 05:16:01;;;;;;;5.88;0.90;;;;;;;;;;5077524;28;20698;-82
2022/04/07 05:18:27;;;;;;;3.70;0.80;;;;;;;;;;5050185;28;20039;-82
2022/04/07 05:20:53;;;;;;;8.10;0.80;;;;;;;;;;5073897;28;20135;-82
2022/04/07 05:23:19;;;;;;;3.53;0.50;;;;;;;;;;5060568;28;20044;-81
2022/04/07 05:25:45;;;;;;;3.50;1.17;;;;;;;;;;5041777;28;20124;-83
2022/04/07 05:28:10;;;;;;;3.10;0.55;;;;;;;;;;5059936;28;20032;-82
2022/04/07 05:30:36;;;;;;;4.63;0.60;;;;;;;;;;5043560;28;20513;-81
2022/04/07 05:33:01;;;;;;;2.58;0.40;;;;;;;;;;5087008;28;20095;-81
2022/04/07 05:35:28;;;;;;;3.83;0.45;;;;;;;;;;5079651;28;20019;-80
2022/04/07 05:38:01;;;;;;;3.35;1.70;;;;;;;;;;5096149;28;20122;-80
2022/04/07 05:40:26;;;;;;;6.97;0.80;;;;;;;;;;5096994;28;20130;-80
2022/04/07 05:42:52;;;;;;;8.38;0.60;;;;;;;;;;5063488;28;20042;-80
2022/04/07 05:45:17;;;;;;;8.88;1.35;;;;;;;;;;5079962;28;20032;-79
2022/04/07 05:47:43;;;;;;;5.90;0.95;;;;;;;;;;5079923;28;20062;-79
2022/04/07 05:50:09;;;;;;;30.02;2.65;;;;;;;;;;5076193;28;20039;-80
2022/04/07 05:52:35;;;;;;;8.80;1.73;;;;;;;;;;5076597;28;20032;-80
2022/04/07 05:55:00;;;;;;;8.02;1.90;;;;;;;;;;5076306;28;20067;-80
2022/04/07 05:57:26;;;;;;;7.57;1.70;;;;;;;;;;5058988;28;20575;-80
2022/04/07 05:59:52;;;;;;;12.27;1.55;;;;;;;;;;5043086;28;20039;-80
2022/04/07 06:02:17;;;;;;;5.85;1.70;;;;;;;;;;5076075;28;20040;-79
2022/04/07 06:04:43;;;;;;;9.18;1.48;;;;;;;;;;5058937;28;20044;-80
2022/04/07 06:07:08;;;;;;;4.72;1.30;;;;;;;;;;5042816;28;20402;-79
2022/04/07 06:09:35;;;;;;;6.65;1.23;;;;;;;;;;5058909;28;20066;-80
2022/04/07 06:12:00;;;;;;;6.65;1.65;;;;;;;;;;5075947;28;20062;-80
2022/04/07 06:14:26;;;;;;;14.73;3.08;;;;;;;;;;5076064;28;20119;-83
2022/04/07 06:16:51;;;;;;;9.13;1.73;;;;;;;;;;5042476;28;20444;-83
2022/04/07 06:19:16;;;;;;;15.25;2.55;;;;;;;;;;5042556;28;20028;-84
2022/04/07 06:21:43;;;;;;;10.15;1.80;;;;;;;;;;5042531;28;20050;-84
2022/04/07 06:24:08;;;;;;;9.32;1.40;;;;;;;;;;5069414;28;20114;-83
2022/04/07 06:26:34;;;;;;;8.25;1.70;;;;;;;;;;5061239;28;20473;-84
2022/04/07 06:28:59;;;;;;;6.45;1.60;;;;;;;;;;5064401;28;20119;-83
2022/04/07 06:31:25;;;;;;;6.15;1.45;;;;;;;;;;5079457;28;20039;-85
2022/04/07 06:33:52;;;;;;;8.23;2.13;;;;;;;;;;5062673;28;20455;-84
2022/04/07 06:36:17;;;;;;;7.40;1.67;;;;;;;;;;5061924;28;20035;-83
2022/04/07 06:38:42;;;;;;;10.27;2.05;;;;;;;;;;5077952;28;20079;-82
2022/04/07 06:41:08;;;;;;;8.48;1.90;;;;;;;;;;5093562;28;20410;-82
2022/04/07 06:43:33;;;;;;;13.50;2.20;;;;;;;;;;5059929;28;20038;-84
2022/04/07 06:45:59;;;;;;;9.05;1.52;;;;;;;;;;5056235;28;20486;-86
2022/04/07 06:48:25;;;;;;;8.25;1.92;;;;;;;;;;5060839;28;20103;-84
2022/04/07 06:50:51;;;;;;;9.00;1.42;;;;;;;;;;5065880;28;20498;-84
2022/04/07 06:53:17;;;;;;;6.13;1.23;;;;;;;;;;5078285;28;20472;-84
2022/04/07 06:55:45;;;;;;;4.82;1.30;;;;;;;;;;5078087;28;20039;-84
2022/04/07 06:58:12;;;;;;;4.53;1.15;;;;;;;;;;5061690;28;20076;-85
2022/04/07 07:00:44;;;;;;;5.75;0.88;;;;;;;;;;5062186;28;20046;-85
2022/04/07 07:03:11;;;;;;;4.50;0.75;;;;;;;;;;5054415;28;20028;-84
2022/04/07 07:05:37;;;;;;;7.65;0.93;;;;;;;;;;5058073;28;20097;-84
2022/04/07 07:08:19;;;;;;;5.25;1.13;;;;;;;;;;5057691;28;20414;-83
2022/04/07 07:10:49;;;;;;;7.60;1.00;;;;;;;;;;5041834;28;20448;-86
2022/04/07 07:13:20;;;;;;;5.43;0.77;;;;;;;;;;5074304;28;20048;-86
2022/04/07 07:15:46;;;;;;;5.00;0.88;;;;;;;;;;5042634;28;20028;-85
2022/04/07 07:18:12;;;;;;;3.42;0.82;;;;;;;;;;5076948;28;20028;-84
2022/04/07 07:20:38;;;;;;;6.63;1.40;;;;;;;;;;5077767;28;20031;-84
2022/04/07 07:23:05;;;;;;;3.20;0.70;;;;;;;;;;5060344;28;20038;-85
2022/04/07 07:25:35;;;;;;;3.90;1.00;;;;;;;;;;5041743;28;20076;-84
2022/04/07 07:28:01;;;;;;;8.88;0.88;;;;;;;;;;5040794;28;20497;-83
2022/04/07 07:30:27;;;;;;;3.10;0.80;;;;;;;;;;5040889;28;20047;-84
2022/04/07 07:32:54;;;;;;;3.00;0.68;;;;;;;;;;5057942;28;20398;-84
2022/04/07 07:35:21;;;;;;;5.53;1.00;;;;;;;;;;5074938;28;20036;-87
2022/04/07 07:37:57;;;;;;;4.18;0.85;;;;;;;;;;5058608;28;20032;-89
2022/04/07 07:40:24;;;;;;;5.22;1.60;;;;;;;;;;5058828;28;20162;-89
2022/04/07 07:42:56;;;;;;;6.72;0.90;;;;;;;;;;5058391;28;20040;-86
2022/04/07 07:45:22;;;;;;;6.65;1.50;;;;;;;;;;5049212;28;20140;-86
2022/04/07 07:47:47;;;;;;;4.53;0.80;;;;;;;;;;5053403;28;20040;-85
2022/04/07 07:50:12;;;;;;;5.85;1.05;;;;;;;;;;5090903;28;20449;-85
2022/04/07 07:52:39;;;;;;;6.10;0.63;;;;;;;;;;5057837;28;20405;-85
2022/04/07 07:55:05;;;;;;;1.38;0.50;;;;;;;;;;5057513;28;20036;-85
2022/04/07 07:57:31;;;;;;;2.97;0.50;;;;;;;;;;5056777;28;20036;-86
2022/04/07 07:59:58;;;;;;;3.90;0.68;;;;;;;;;;5073750;28;20040;-85
2022/04/07 08:02:24;;;;;;;4.82;0.73;;;;;;;;;;5056827;28;20055;-85
2022/04/07 08:04:49;;;;;;;5.28;0.60;;;;;;;;;;5073600;28;20184;-85
2022/04/07 08:07:16;;;;;;;3.42;0.90;;;;;;;;;;5074080;28;20043;-86
2022/04/07 08:09:41;;;;;;;3.97;0.60;;;;;;;;;;5074083;28;20818;-87
2022/04/07 08:12:07;;;;;;;1.98;0.32;;;;;;;;;;5057877;28;20164;-87
2022/04/07 08:14:33;;;;;;;3.65;0.50;;;;;;;;;;5057571;28;20063;-86
2022/04/07 08:17:00;;;;;;;3.92;0.50;;;;;;;;;;5077796;28;20442;-86
2022/04/07 08:19:26;;;;;;;6.65;0.90;;;;;;;;;;5060923;28;20028;-86
2022/04/07 08:21:52;;;;;;;3.40;0.55;;;;;;;;;;5060646;28;20036;-86
2022/04/07 08:24:19;;;;;;;4.30;0.60;;;;;;;;;;5048092;28;20397;-85
2022/04/07 08:26:46;;;;;;;1.98;0.43;;;;;;;;;;5040870;28;20036;-85
2022/04/07 08:29:11;;;;;;;5.90;0.70;;;;;;;;;;5056682;28;20412;-85
2022/04/07 08:31:37;;;;;;;3.50;0.63;;;;;;;;;;5040734;28;20047;-85
2022/04/07 08:34:02;;;;;;;4.55;0.50;;;;;;;;;;5038844;28;20043;-85
2022/04/07 08:36:28;;;;;;;3.05;0.38;;;;;;;;;;5043793;28;20504;-86
2022/04/07 08:38:53;;;;;;;2.30;0.40;;;;;;;;;;5043407;28;20101;-85
2022/04/07 08:41:20;;;;;;;3.70;0.55;;;;;;;;;;5060266;28;20039;-86
2022/04/07 08:43:45;;;;;;;2.47;0.40;;;;;;;;;;5060149;28;20061;-83
2022/04/07 08:46:11;;;;;;;1.92;0.40;;;;;;;;;;5076606;28;20396;-83
2022/04/07 08:48:38;;;;;;;3.08;0.40;;;;;;;;;;5045055;28;20046;-83
2022/04/07 08:51:04;;;;;;;1.48;0.38;;;;;;;;;;5080921;28;20118;-82
2022/04/07 08:53:30;;;;;;;1.77;0.57;;;;;;;;;;5064044;28;20036;-83
2022/04/07 08:55:56;;;;;;;1.88;0.30;;;;;;;;;;5080518;28;20044;-83
2022/04/07 08:58:21;;;;;;;2.42;0.80;;;;;;;;;;5080140;28;20035;-83
2022/04/07 09:00:49;;;;;;;3.38;0.70;;;;;;;;;;5080475;28;20039;-83
2022/04/07 09:03:14;;;;;;;1.73;0.50;;;;;;;;;;5064034;28;20038;-83
2022/04/07 09:06:00;;;;;;;4.53;0.50;;;;;;;;;;5080291;28;20044;-83
2022/04/07 09:08:30;;;;;;;2.50;0.50;;;;;;;;;;5048023;28;20039;-83
2022/04/07 09:10:55;;;;;;;1.77;0.32;;;;;;;;;;5080492;28;20031;-83
2022/04/07 09:13:20;;;;;;;2.30;0.60;;;;;;;;;;5063242;28;20413;-83
2022/04/07 09:15:47;;;;;;;2.30;0.73;;;;;;;;;;5063263;28;20390;-83
2022/04/07 09:18:12;;;;;;;3.17;0.50;;;;;;;;;;5063815;28;20443;-82
2022/04/07 09:20:44;;;;;;;0.80;0.40;;;;;;;;;;5080228;28;20028;-83
2022/04/07 09:23:12;;;;;;;0.93;0.20;;;;;;;;;;5061681;28;20054;-83
2022/04/07 09:25:43;;;;;;;1.17;0.30;;;;;;;;;;5043265;28;20028;-83
2022/04/07 09:28:09;;;;;;;1.38;0.30;;;;;;;;;;5026774;28;20028;-83
2022/04/07 09:30:38;;;;;;;2.80;0.30;;;;;;;;;;5026944;28;20064;-83
2022/04/07 09:33:03;;;;;;;1.90;0.30;;;;;;;;;;5047801;28;20023;-85
2022/04/07 09:35:28;;;;;;;1.17;0.30;;;;;;;;;;5063165;28;20189;-85
2022/04/07 09:38:00;;;;;;;2.80;0.75;;;;;;;;;;5062926;28;20111;-85
2022/04/07 09:40:25;;;;;;;1.30;0.30;;;;;;;;;;5047441;28;20051;-85
2022/04/07 09:42:58;;;;;;;1.42;0.25;;;;;;;;;;5046502;28;20036;-85
2022/04/07 09:45:24;;;;;;;2.70;0.30;;;;;;;;;;5046629;28;20066;-86
2022/04/07 09:47:50;;;;;;;1.40;0.35;;;;;;;;;;5079781;28;20023;-85
2022/04/07 09:50:24;;;;;;;3.10;0.30;;;;;;;;;;5062839;28;20027;-85
2022/04/07 09:52:59;;;;;;;2.50;0.32;;;;;;;;;;5063043;28;20059;-85
2022/04/07 09:55:32;;;;;;;1.90;0.30;;;;;;;;;;5063122;28;20027;-84
2022/04/07 09:57:57;;;;;;;0.93;0.20;;;;;;;;;;5063230;28;20037;-84
2022/04/07 10:00:23;;;;;;;1.77;0.30;;;;;;;;;;5061540;28;20039;-83
2022/04/07 10:02:49;;;;;;;1.80;0.43;;;;;;;;;;5046204;28;20024;-84
2022/04/07 10:05:14;;;;;;;1.75;0.30;;;;;;;;;;5062683;28;20093;-82
2022/04/07 10:07:41;;;;;;;2.35;0.40;;;;;;;;;;5062605;28;20031;-84
2022/04/07 10:10:07;;;;;;;1.77;0.25;;;;;;;;;;5062840;28;20047;-85
2022/04/07 10:12:33;;;;;;;2.67;0.40;;;;;;;;;;5063084;28;20042;-84
2022/04/07 10:14:59;;;;;;;2.58;0.30;;;;;;;;;;5046178;28;20043;-85
2022/04/07 10:17:24;;;;;;;1.52;0.70;;;;;;;;;;5053371;28;20023;-84
2022/04/07 10:20:05;;;;;;;2.10;0.20;;;;;;;;;;5026134;28;20039;-85
2022/04/07 10:22:58;;;;;;;1.08;0.30;;;;;;;;;;5042481;28;20028;-83
2022/04/07 10:25:23;;;;;;;3.65;0.45;;;;;;;;;;5071448;28;20043;-83
2022/04/07 10:28:01;;;;;;;2.50;0.40;;;;;;;;;;5074358;28;20458;-83
2022/04/07 10:30:29;;;;;;;1.88;0.30;;;;;;;;;;5026252;28;20035;-82
2022/04/07 10:32:56;;;;;;;1.88;0.40;;;;;;;;;;5026449;28;20036;-80
2022/04/07 10:35:36;;;;;;;2.40;0.43;;;;;;;;;;5058946;28;20028;-79
2022/04/07 10:38:09;;;;;;;4.55;0.77;;;;;;;;;;5091694;28;20040;-81
2022/04/07 10:40:51;;;;;;;3.22;0.63;;;;;;;;;;5025617;28;20046;-80
2022/04/07 10:43:18;;;;;;;3.15;0.50;;;;;;;;;;5028289;28;20028;-80
2022/04/07 10:45:45;;;;;;;4.43;0.82;;;;;;;;;;5078862;28;20079;-80
2022/04/07 10:48:16;;;;;;;4.93;1.00;;;;;;;;;;5061136;28;20035;-80
2022/04/07 10:50:52;;;;;;;4.10;1.48;;;;;;;;;;5059809;28;20062;-80
2022/04/07 10:53:22;;;;;;;10.00;4.30;;;;;;;;;;5045887;28;20031;-82
2022/04/07 10:56:15;;;;;;;10.90;4.32;;;;;;;;;;5057815;28;20036;-82
2022/04/07 10:58:47;;;;;;;15.10;6.85;;;;;;;;;;5057704;28;20115;-82
2022/04/07 11:01:33;;;;;;;11.07;5.35;;;;;;;;;;5058012;28;20031;-82
2022/04/07 11:04:20;;;;;;;12.43;5.72;;;;;;;;;;5078685;28;20051;-82
2022/04/07 11:07:04;;;;;;;14.05;7.30;;;;;;;;;;5094457;28;20039;-82
2022/04/07 11:09:45;;;;;;;15.38;7.65;;;;;;;;;;5076622;28;20122;-82
2022/04/07 11:12:12;;;;;;;13.27;7.05;;;;;;;;;;5092763;28;20039;-82
2022/04/07 11:14:37;;;;;;;12.00;6.70;;;;;;;;;;5061116;28;20100;-82
2022/04/07 11:17:06;;;;;;;15.63;6.70;;;;;;;;;;5057510;28;20036;-82
2022/04/07 11:19:40;;;;;;;15.63;7.00;;;;;;;;;;5041493;28;20528;-82
2022/04/07 11:22:09;;;;;;;13.52;9.13;;;;;;;;;;5057599;28;20086;-82
2022/04/07 11:24:42;;;;;;;15.07;7.88;;;;;;;;;;5037424;28;20118;-81
2022/04/07 11:27:39;;;;;;;16.30;8.65;;;;;;;;;;5043299;28;20039;-81
2022/04/07 11:30:09;;;;;;;17.45;10.85;;;;;;;;;;5061576;28;20038;-81
2022/04/07 11:32:36;;;;;;;27.15;16.95;;;;;;;;;;5044258;28;20074;-81
2022/04/07 11:35:14;;;;;;;25.17;15.35;;;;;;;;;;5060732;28;20130;-81
2022/04/07 11:37:41;;;;;;;21.95;14.32;;;;;;;;;;5060637;28;20119;-81
2022/04/07 11:40:07;;;;;;;28.00;14.82;;;;;;;;;;5044283;28;20065;-81
2022/04/07 11:42:32;;;;;;;26.65;17.80;;;;;;;;;;5061087;28;20556;-81
2022/04/07 11:44:59;;;;;;;37.78;26.73;;;;;;;;;;5060208;28;20042;-81
2022/04/07 11:47:31;;;;;;;44.40;29.00;;;;;;;;;;5061001;28;20031;-81
2022/04/07 11:49:56;;;;;;;50.92;34.38;;;;;;;;;;5059949;28;20031;-82
2022/04/07 11:52:32;;;;;;;48.90;34.83;;;;;;;;;;5060707;28;20052;-81
2022/04/07 11:54:58;;;;;;;50.53;35.42;;;;;;;;;;5077222;28;20122;-81
2022/04/07 11:57:25;;;;;;;48.08;33.45;;;;;;;;;;5076796;28;20031;-81
2022/04/07 11:59:53;;;;;;;46.45;33.92;;;;;;;;;;5060465;28;20023;-81
2022/04/07 12:02:21;;;;;;;44.97;32.45;;;;;;;;;;5060311;28;20064;-82
2022/04/07 12:04:52;;;;;;;46.67;32.10;;;;;;;;;;5060696;28;20070;-82
2022/04/07 12:07:18;;;;;;;45.83;31.02;;;;;;;;;;5059934;28;20489;-82
2022/04/07 12:09:43;;;;;;;45.35;30.55;;;;;;;;;;5043498;28;20100;-82
2022/04/07 12:12:09;;;;;;;40.90;28.58;;;;;;;;;;5044054;28;20043;-82
2022/04/07 12:14:34;;;;;;;38.45;27.88;;;;;;;;;;5043724;28;20058;-81
2022/04/07 12:17:00;;;;;;;37.25;26.83;;;;;;;;;;5064388;28;20036;-82
2022/04/07 12:19:26;;;;;;;37.60;25.35;;;;;;;;;;5040440;28;20091;-82
2022/04/07 12:21:58;;;;;;;36.15;26.30;;;;;;;;;;5056332;28;20048;-82
2022/04/07 12:24:27;;;;;;;35.67;25.00;;;;;;;;;;5047802;28;20086;-82
2022/04/07 12:26:54;;;;;;;33.15;24.08;;;;;;;;;;5056659;28;20024;-81
2022/04/07 12:29:23;;;;;;;32.83;24.40;;;;;;;;;;5056912;28;20032;-81
2022/04/07 12:32:02;;;;;;;34.03;23.48;;;;;;;;;;5057287;28;20024;-81
2022/04/07 12:34:28;;;;;;;31.35;21.63;;;;;;;;;;5057239;28;20421;-81
2022/04/07 12:36:55;;;;;;;33.03;22.25;;;;;;;;;;5056704;28;20124;-82
2022/04/07 12:39:20;;;;;;;28.95;20.45;;;;;;;;;;5057063;28;20102;-81
2022/04/07 12:41:50;;;;;;;29.58;20.27;;;;;;;;;;5040312;28;20494;-81
2022/04/07 12:44:35;;;;;;;27.52;18.95;;;;;;;;;;5057184;28;20032;-79
2022/04/07 12:47:05;;;;;;;25.48;18.08;;;;;;;;;;5059111;28;20509;-79
2022/04/07 12:49:32;;;;;;;26.35;18.25;;;;;;;;;;5041126;28;20043;-79
2022/04/07 12:52:11;;;;;;;27.40;18.10;;;;;;;;;;5056183;28;20410;-79
2022/04/07 12:54:37;;;;;;;24.75;16.35;;;;;;;;;;5056755;28;20036;-79
2022/04/07 12:57:13;;;;;;;24.65;17.60;;;;;;;;;;5056279;28;20107;-81
2022/04/07 12:59:56;;;;;;;25.45;17.20;;;;;;;;;;5040247;28;20035;-81
2022/04/07 13:02:22;;;;;;;23.15;15.45;;;;;;;;;;5057696;28;20040;-81
2022/04/07 13:04:48;;;;;;;24.17;16.10;;;;;;;;;;5056299;28;20440;-81
2022/04/07 13:07:14;;;;;;;22.85;14.90;;;;;;;;;;5056548;28;20036;-82
2022/04/07 13:09:39;;;;;;;19.17;13.75;;;;;;;;;;5039755;28;20040;-81
2022/04/07 13:12:05;;;;;;;22.40;15.00;;;;;;;;;;5065793;28;20596;-81
2022/04/07 13:14:31;;;;;;;18.77;13.98;;;;;;;;;;5043433;28;20426;-81
2022/04/07 13:16:57;;;;;;;15.88;11.57;;;;;;;;;;5046828;28;20135;-81
2022/04/07 13:19:22;;;;;;;18.10;12.65;;;;;;;;;;5023269;28;20035;-82
2022/04/07 13:21:48;;;;;;;19.15;11.65;;;;;;;;;;5056209;28;20068;-81
2022/04/07 13:24:13;;;;;;;16.15;11.05;;;;;;;;;;5046595;28;20414;-81
2022/04/07 13:26:39;;;;;;;18.33;11.68;;;;;;;;;;5056541;28;20062;-82
2022/04/07 13:29:04;;;;;;;18.48;11.80;;;;;;;;;;5039503;28;20398;-81
2022/04/07 13:31:29;;;;;;;20.00;12.40;;;;;;;;;;5056296;28;20410;-81
2022/04/07 13:33:55;;;;;;;15.15;11.70;;;;;;;;;;5056464;28;20402;-81
2022/04/07 13:36:20;;;;;;;15.98;10.27;;;;;;;;;;5059839;28;20502;-81
2022/04/07 13:38:46;;;;;;;13.32;9.20;;;;;;;;;;5043086;28;20375;-81
2022/04/07 13:41:12;;;;;;;19.08;10.65;;;;;;;;;;5059681;28;20078;-81
2022/04/07 13:43:37;;;;;;;14.25;8.93;;;;;;;;;;5060015;28;20040;-81
2022/04/07 13:46:03;;;;;;;13.73;8.88;;;;;;;;;;5059470;28;20048;-81
2022/04/07 13:48:29;;;;;;;14.32;10.05;;;;;;;;;;5042556;28;20406;-81
2022/04/07 13:50:54;;;;;;;13.40;8.85;;;;;;;;;;5059581;28;20040;-81
2022/04/07 13:53:20;;;;;;;12.02;8.40;;;;;;;;;;5042678;28;20056;-81
2022/04/07 13:55:46;;;;;;;13.88;9.18;;;;;;;;;;5042816;28;20036;-81
2022/04/07 13:58:11;;;;;;;13.57;8.98;;;;;;;;;;5059349;28;20096;-81
2022/04/07 14:00:41;;;;;;;13.32;7.82;;;;;;;;;;5076021;28;20039;-81
2022/04/07 14:03:06;;;;;;;14.27;8.43;;;;;;;;;;5075768;28;20028;-81
2022/04/07 14:05:33;;;;;;;13.75;10.05;;;;;;;;;;5062159;28;20047;-81
2022/04/07 14:07:58;;;;;;;18.08;11.38;;;;;;;;;;5078891;28;20547;-81
2022/04/07 14:10:24;;;;;;;17.75;11.88;;;;;;;;;;5062580;28;20039;-81
2022/04/07 14:12:49;;;;;;;16.73;10.05;;;;;;;;;;5062600;28;20084;-81
2022/04/07 14:15:15;;;;;;;13.52;8.98;;;;;;;;;;5045794;28;20164;-81
2022/04/07 14:17:40;;;;;;;11.90;8.40;;;;;;;;;;5058971;28;20032;-81
2022/04/07 14:20:07;;;;;;;13.93;8.48;;;;;;;;;;5026063;28;20031;-81
2022/04/07 14:22:33;;;;;;;13.48;8.32;;;;;;;;;;5026126;28;20036;-81
2022/04/07 14:24:58;;;;;;;12.93;8.13;;;;;;;;;;5055053;28;20036;-79
2022/04/07 14:27:23;;;;;;;12.55;7.13;;;;;;;;;;5058508;28;20409;-79
2022/04/07 14:29:49;;;;;;;13.18;7.47;;;;;;;;;;5059040;28;20028;-79
2022/04/07 14:32:15;;;;;;;20.98;8.02;;;;;;;;;;5042143;28;20130;-78
2022/04/07 14:34:41;;;;;;;11.60;7.32;;;;;;;;;;5042329;28;20035;-78
2022/04/07 14:37:06;;;;;;;12.18;7.13;;;;;;;;;;5059015;28;20055;-79
2022/04/07 14:39:32;;;;;;;12.10;7.20;;;;;;;;;;5041853;28;20058;-79
2022/04/07 14:41:57;;;;;;;11.45;5.97;;;;;;;;;;5058692;28;20055;-80
2022/04/07 14:44:23;;;;;;;13.18;6.05;;;;;;;;;;5058632;28;20509;-78
2022/04/07 14:46:48;;;;;;;9.20;5.55;;;;;;;;;;5057407;28;20040;-80
2022/04/07 14:49:14;;;;;;;11.13;5.53;;;;;;;;;;5058415;28;20460;-82
2022/04/07 14:51:40;;;;;;;8.82;5.40;;;;;;;;;;5058488;28;20119;-82
2022/04/07 14:54:07;;;;;;;10.95;5.28;;;;;;;;;;5041832;28;20027;-81
2022/04/07 14:56:32;;;;;;;7.45;4.55;;;;;;;;;;5058751;28;20040;-79
2022/04/07 14:58:58;;;;;;;11.48;5.35;;;;;;;;;;5025169;28;20068;-79
2022/04/07 15:01:23;;;;;;;7.60;4.68;;;;;;;;;;5040742;28;20078;-79
2022/04/07 15:03:48;;;;;;;9.40;5.22;;;;;;;;;;5044238;28;20439;-78
2022/04/07 15:06:14;;;;;;;10.30;5.05;;;;;;;;;;5094397;28;20448;-79
2022/04/07 15:08:39;;;;;;;7.30;4.45;;;;;;;;;;5094728;28;20039;-79
2022/04/07 15:11:06;;;;;;;7.85;4.45;;;;;;;;;;5061623;28;20066;-78
2022/04/07 15:13:31;;;;;;;12.43;4.60;;;;;;;;;;5077548;28;20466;-79